Lynn Lake, Manitoba

9:57 AM CDT on July 29, 2014 (GMT -0500)
Lynn Lake (CYYL) Elev 1171 ft | 56.86 °N, 101.08 °W | Change Station

Current weather conditions updated 57 minutes ago

Clear
Clear
70 °F
Feels Like 70 °F
N
0
Wind Variable Wind from North

Today is forecast to be Warmer than yesterday.

Today
High -- | Low -- °F
--% Chance of Precip.
Yesterday
High -- | Low -- °F
Precip. -- in
5:38 AM 10:02 PM
Waxing Crescent, 6% visible
Pressure 30.15 in
Visibility 9.0 miles
Clouds Clear
Dew Point 57 °F
Humidity 64%
Rainfall 0.00 in
Snow Depth Not available.
UV 2 out of 12
Pollen Not available.
Air Quality Not available.
Flu Activity Not available.
METAR CYYL 291400Z AUTO 00000KT 9SM CLR 21/14 A3013 RMK SLP208 DENSITY ALT 1800FT

More Conditions Fewer Conditions

Pressure 30.15 in
Visibility 9.0 miles
Clouds Clear
Dew Point 57 °F
Humidity 64%
Rainfall 0.00 in
Snow Depth Not available.
UV 2 out of 12
Pollen Not available.
Air Quality Not available.
Flu Activity Not available.
METAR CYYL 291400Z AUTO 00000KT 9SM CLR 21/14 A3013 RMK SLP208 DENSITY ALT 1800FT

More Conditions Fewer Conditions

10-Day Weather Forecast

Almanac

Astronomy

Jul. 29, 2014 Rise Set
Actual Time 5:38 AM CDT 10:02 PM CDT
Civil Twilight 4:46 AM CDT 10:53 PM CDT
Nautical Twilight 3:22 AM CDT 12:15 AM CDT
Astronomical Twilight Sun does not rise Sun does not rise
Moon 9:00 AM CDT 10:26 PM CDT
Length of Visible Light 18h 07m
Length of Day
16h 23m
Tomorrow will be 3m 56s shorter.
Waxing Crescent, 6% of the Moon is Illuminated
Today
Waxing Crescent
Aug 3
First Quarter
Aug 10
Full
Aug 17
Last Quarter
Aug 25
New

Today's Extremes

Country Highs Country Lows

Community

WunderPhotos

Upload Photos

1,738,749 photos uploaded!

Nearby

Snow Depth

Not available.

Earthquake Activity

City Distance Mag. Time & Date
No recent earthquake activity has been reported nearby.
Minimum magnitude displayed is 2.5.

Coastal Water Temperatures

Place Temperature
No Stations Reporting

Nearby Weather Stations

There are no personal weather stations in this area.